createdAt,value
2022-09-12T00:01:21.453Z,9.85
2022-09-12T00:03:55.383Z,9.89
2022-09-12T00:06:27.810Z,9.85
2022-09-12T00:08:57.022Z,9.87
2022-09-12T00:11:24.349Z,10.10
2022-09-12T00:13:51.945Z,10.07
2022-09-12T00:16:23.637Z,10.04
2022-09-12T00:18:51.464Z,10.18
2022-09-12T00:21:19.115Z,10.06
2022-09-12T00:23:46.725Z,10.17
2022-09-12T00:26:14.929Z,10.14
2022-09-12T00:28:42.196Z,10.06
2022-09-12T00:31:13.225Z,9.95
2022-09-12T00:33:41.342Z,9.86
2022-09-12T00:36:15.415Z,9.93
2022-09-12T00:38:44.555Z,10.00
2022-09-12T00:41:17.642Z,10.13
2022-09-12T00:43:49.830Z,10.05
2022-09-12T00:46:36.324Z,9.96
2022-09-12T00:49:26.088Z,9.89
2022-09-12T00:52:03.640Z,9.98
2022-09-12T00:54:36.314Z,9.81
2022-09-12T00:57:08.057Z,9.86
2022-09-12T00:59:41.555Z,9.69
2022-09-12T01:02:09.022Z,9.78
2022-09-12T01:04:38.760Z,9.86
2022-09-12T01:07:08.087Z,9.84
2022-09-12T01:09:37.389Z,9.86
2022-09-12T01:12:06.106Z,9.68
2022-09-12T01:14:33.357Z,9.59
2022-09-12T01:17:00.600Z,9.57
2022-09-12T01:20:19.443Z,9.47
2022-09-12T01:23:06.017Z,9.38
2022-09-12T01:25:59.406Z,9.33
2022-09-12T01:28:55.509Z,9.29
2022-09-12T01:31:33.648Z,9.37
2022-09-12T01:34:15.821Z,9.38
2022-09-12T01:37:14.505Z,9.42
2022-09-12T01:39:41.708Z,9.39
2022-09-12T01:42:23.976Z,9.38
2022-09-12T01:45:18.597Z,9.43
2022-09-12T01:47:50.267Z,9.30
2022-09-12T01:50:21.762Z,9.24
2022-09-12T01:52:58.865Z,9.21
2022-09-12T01:55:32.644Z,9.22
2022-09-12T01:58:12.656Z,9.13
2022-09-12T02:00:48.703Z,9.36
2022-09-12T02:03:20.752Z,9.33
2022-09-12T02:05:50.937Z,9.32
2022-09-12T02:08:26.062Z,9.33
2022-09-12T02:11:01.358Z,9.29
2022-09-12T02:13:28.653Z,9.37
2022-09-12T02:16:03.704Z,9.35
2022-09-12T02:18:34.161Z,9.54
2022-09-12T02:21:03.777Z,9.64
2022-09-12T02:23:32.710Z,9.66
2022-09-12T02:26:18.768Z,9.65
2022-09-12T02:28:46.243Z,9.66
2022-09-12T02:31:35.491Z,9.61
2022-09-12T02:34:05.462Z,9.72
2022-09-12T02:36:59.441Z,9.73
2022-09-12T02:39:26.846Z,9.83
2022-09-12T02:42:01.047Z,9.81
2022-09-12T02:44:30.524Z,9.82
2022-09-12T02:47:05.660Z,9.59
2022-09-12T02:49:33.002Z,9.62
2022-09-12T02:52:02.329Z,9.56
2022-09-12T02:54:31.143Z,9.49
2022-09-12T02:56:58.284Z,9.50
2022-09-12T02:59:26.562Z,9.48
2022-09-12T03:02:12.743Z,9.40
2022-09-12T03:04:52.444Z,9.30
2022-09-12T03:07:43.254Z,9.18
2022-09-12T03:10:18.632Z,9.09
2022-09-12T03:13:15.100Z,9.07
2022-09-12T03:15:57.736Z,9.05
2022-09-12T03:18:51.797Z,8.99
2022-09-12T03:21:23.256Z,8.95
2022-09-12T03:24:13.564Z,8.85
2022-09-12T03:26:54.539Z,8.81
2022-09-12T03:29:24.804Z,8.84
2022-09-12T03:31:55.400Z,8.78
2022-09-12T03:34:24.211Z,8.83
2022-09-12T03:36:52.348Z,8.87
2022-09-12T03:39:20.441Z,8.83
2022-09-12T03:41:47.820Z,8.79
2022-09-12T03:44:14.949Z,8.93
2022-09-12T03:46:42.370Z,8.98
2022-09-12T03:49:10.832Z,9.06
2022-09-12T03:51:39.364Z,9.22
2022-09-12T03:54:07.032Z,9.31
2022-09-12T03:56:35.349Z,9.31
2022-09-12T03:59:05.562Z,9.23
2022-09-12T04:01:33.104Z,9.22
2022-09-12T04:04:00.360Z,9.13
2022-09-12T04:06:27.664Z,9.09
2022-09-12T04:08:55.440Z,9.05
2022-09-12T04:11:23.347Z,8.95
2022-09-12T04:13:50.968Z,8.97
2022-09-12T04:16:19.038Z,9.03
2022-09-12T04:18:47.089Z,9.02
2022-09-12T04:21:18.016Z,9.04
2022-09-12T04:23:45.909Z,8.95
2022-09-12T04:26:14.214Z,9.10
2022-09-12T04:28:42.086Z,9.18
2022-09-12T04:31:13.462Z,9.18
2022-09-12T04:33:40.612Z,9.40
2022-09-12T04:36:10.646Z,9.56
2022-09-12T04:38:39.105Z,9.62
2022-09-12T04:41:13.401Z,9.77
2022-09-12T04:43:42.520Z,9.67
2022-09-12T04:46:12.279Z,9.72
2022-09-12T04:48:39.734Z,9.86
2022-09-12T04:51:13.718Z,10.11
2022-09-12T04:53:42.471Z,10.34
2022-09-12T04:56:11.743Z,10.43
2022-09-12T04:58:39.098Z,10.32
2022-09-12T05:01:10.803Z,10.53
2022-09-12T05:03:39.667Z,10.66
2022-09-12T05:06:08.753Z,10.94
2022-09-12T05:08:36.266Z,11.22
2022-09-12T05:11:10.551Z,11.62
2022-09-12T05:13:38.961Z,12.17
2022-09-12T05:16:07.905Z,12.57
2022-09-12T05:18:36.524Z,12.46
2022-09-12T05:21:07.002Z,12.13
2022-09-12T05:23:34.298Z,11.82
2022-09-12T05:26:03.151Z,11.73
2022-09-12T05:28:36.236Z,11.78
2022-09-12T05:31:15.619Z,11.73
2022-09-12T05:33:46.252Z,11.63
2022-09-12T05:36:22.646Z,11.58
2022-09-12T05:38:50.486Z,11.51
2022-09-12T05:41:24.978Z,11.70
2022-09-12T05:43:58.007Z,11.88
2022-09-12T05:46:27.703Z,12.13
2022-09-12T05:48:56.689Z,12.78
2022-09-12T05:51:26.772Z,15.27
2022-09-12T05:53:57.078Z,19.55
2022-09-12T05:56:30.254Z,23.11
2022-09-12T05:59:02.666Z,24.98
2022-09-12T06:01:31.625Z,26.35
2022-09-12T06:04:01.191Z,27.78
2022-09-12T06:06:29.933Z,28.34
2022-09-12T06:09:00.328Z,29.16
2022-09-12T06:11:30.214Z,29.67
2022-09-12T06:13:59.058Z,30.75
2022-09-12T06:16:29.025Z,30.83
2022-09-12T06:19:01.735Z,32.10
2022-09-12T06:21:31.404Z,31.32
2022-09-12T06:23:59.227Z,32.58
2022-09-12T06:26:28.064Z,33.12
2022-09-12T06:28:57.528Z,33.91
2022-09-12T06:31:30.732Z,31.71
2022-09-12T06:34:01.057Z,34.12
2022-09-12T06:36:31.497Z,35.42
2022-09-12T06:39:01.659Z,35.07
2022-09-12T06:41:31.327Z,33.25
2022-09-12T06:43:59.677Z,33.78
2022-09-12T06:46:27.920Z,35.09
2022-09-12T06:49:00.664Z,34.91
2022-09-12T06:51:28.846Z,36.45
2022-09-12T06:53:57.312Z,35.63
2022-09-12T06:56:27.193Z,35.66
2022-09-12T06:58:59.343Z,36.48
2022-09-12T07:01:29.222Z,36.55
2022-09-12T07:04:01.952Z,34.82
2022-09-12T07:06:35.154Z,32.74
2022-09-12T07:09:04.474Z,32.61
2022-09-12T07:11:34.668Z,31.16
2022-09-12T07:14:03.619Z,32.33
2022-09-12T07:16:32.736Z,33.93
2022-09-12T07:19:02.227Z,36.18
2022-09-12T07:21:30.048Z,36.78
2022-09-12T07:24:00.604Z,36.86
2022-09-12T07:26:29.002Z,34.80
2022-09-12T07:29:08.275Z,31.60
2022-09-12T07:31:45.559Z,29.14
2022-09-12T07:34:14.006Z,26.55
2022-09-12T07:36:41.170Z,25.22
2022-09-12T07:39:08.627Z,25.37
2022-09-12T07:41:35.834Z,25.98
2022-09-12T07:44:03.593Z,28.22
2022-09-12T07:46:31.555Z,26.37
2022-09-12T07:49:01.305Z,25.15
2022-09-12T07:51:30.462Z,24.97
2022-09-12T07:53:58.491Z,25.29
2022-09-12T07:56:32.769Z,25.34
2022-09-12T07:59:02.082Z,28.78
2022-09-12T08:01:29.874Z,30.91
2022-09-12T08:03:59.462Z,30.29
2022-09-12T08:06:30.363Z,29.43
2022-09-12T08:08:59.037Z,29.15
2022-09-12T08:11:28.974Z,30.88
2022-09-12T08:13:58.058Z,31.66
2022-09-12T08:16:27.911Z,31.56
2022-09-12T08:18:55.616Z,29.17
2022-09-12T08:21:25.538Z,30.38
2022-09-12T08:23:54.690Z,27.98
2022-09-12T08:26:22.264Z,26.86
2022-09-12T08:28:49.649Z,27.60
2022-09-12T08:31:20.227Z,28.39
2022-09-12T08:33:47.942Z,28.76
2022-09-12T08:36:18.194Z,27.76
2022-09-12T08:38:47.516Z,24.77
2022-09-12T08:41:38.723Z,24.26
2022-09-12T08:45:00.212Z,21.71
2022-09-12T08:47:41.894Z,20.65
2022-09-12T08:50:11.946Z,22.08
2022-09-12T08:53:26.760Z,23.59
2022-09-12T08:55:58.811Z,22.56
2022-09-12T08:58:29.127Z,23.23
2022-09-12T09:01:02.223Z,22.91
2022-09-12T09:03:35.457Z,23.53
2022-09-12T09:06:09.002Z,24.72
2022-09-12T09:08:48.021Z,24.96
2022-09-12T09:12:06.840Z,24.51
2022-09-12T09:14:49.228Z,25.18
2022-09-12T09:17:31.810Z,25.44
2022-09-12T09:20:22.946Z,27.54
2022-09-12T09:22:54.708Z,22.37
2022-09-12T09:25:28.340Z,21.83
2022-09-12T09:28:11.590Z,23.73
2022-09-12T09:30:42.402Z,24.87
2022-09-12T09:33:20.524Z,24.24
2022-09-12T09:35:56.723Z,23.37
2022-09-12T09:38:46.375Z,22.76
2022-09-12T09:41:36.254Z,22.06
2022-09-12T09:44:04.561Z,21.70
2022-09-12T09:46:32.473Z,20.55
2022-09-12T09:49:03.390Z,20.38
2022-09-12T09:51:39.910Z,21.85
2022-09-12T09:54:23.654Z,20.35
2022-09-12T09:56:51.252Z,20.55
2022-09-12T09:59:31.132Z,19.33
2022-09-12T10:02:23.255Z,19.29
2022-09-12T10:04:57.690Z,18.84
2022-09-12T10:07:26.688Z,20.73
2022-09-12T10:10:16.712Z,22.15
2022-09-12T10:12:44.496Z,21.69
2022-09-12T10:15:29.549Z,20.37
2022-09-12T10:17:57.175Z,19.31
2022-09-12T10:20:36.557Z,19.33
2022-09-12T10:23:33.826Z,19.67
2022-09-12T10:26:05.214Z,18.54
2022-09-12T10:28:35.987Z,18.35
2022-09-12T10:31:04.375Z,18.65
2022-09-12T10:33:40.434Z,20.67
2022-09-12T10:36:07.989Z,21.34
2022-09-12T10:38:35.150Z,22.28
2022-09-12T10:41:11.449Z,22.72
2022-09-12T10:43:41.477Z,21.87
2022-09-12T10:46:14.737Z,19.11
2022-09-12T10:48:44.041Z,19.47
2022-09-12T10:51:28.908Z,19.86
2022-09-12T10:54:02.241Z,20.18
2022-09-12T10:56:34.981Z,20.83
2022-09-12T10:59:24.439Z,20.23
2022-09-12T11:02:27.396Z,20.83
2022-09-12T11:05:11.743Z,19.69
2022-09-12T11:07:53.348Z,19.97
2022-09-12T11:10:47.685Z,19.81
2022-09-12T11:13:52.327Z,18.51
2022-09-12T11:16:49.063Z,17.75
2022-09-12T11:19:53.637Z,17.55
2022-09-12T11:22:32.065Z,16.74
2022-09-12T11:25:28.246Z,16.92
2022-09-12T11:28:26.017Z,16.76
2022-09-12T11:31:11.610Z,17.03
2022-09-12T11:33:46.896Z,17.11
2022-09-12T11:36:41.614Z,17.02
2022-09-12T11:39:16.520Z,16.72
2022-09-12T11:41:48.425Z,16.59
2022-09-12T11:44:50.463Z,16.64
2022-09-12T11:47:18.767Z,16.58
2022-09-12T11:49:53.081Z,16.67
2022-09-12T11:52:23.925Z,16.39
2022-09-12T11:54:57.920Z,16.52
2022-09-12T11:57:25.057Z,16.74
2022-09-12T12:00:15.258Z,16.90
2022-09-12T12:03:04.874Z,16.54
2022-09-12T12:05:41.184Z,16.41
2022-09-12T12:08:09.384Z,16.33
2022-09-12T12:10:50.019Z,16.29
2022-09-12T12:13:32.218Z,16.27
2022-09-12T12:16:04.980Z,16.20
2022-09-12T12:18:34.361Z,16.27
2022-09-12T12:21:35.083Z,16.39
2022-09-12T12:24:08.232Z,16.31
2022-09-12T12:26:38.873Z,16.40
2022-09-12T12:29:18.501Z,16.46
2022-09-12T12:32:20.345Z,16.46
2022-09-12T12:34:48.222Z,16.42
2022-09-12T12:37:23.027Z,16.33
2022-09-12T12:40:01.174Z,16.12
2022-09-12T12:42:35.506Z,16.14
2022-09-12T12:45:09.584Z,16.19
2022-09-12T12:47:43.181Z,16.33
2022-09-12T12:50:10.350Z,16.40
2022-09-12T12:52:46.464Z,16.20
2022-09-12T12:55:35.404Z,16.12
2022-09-12T12:58:05.850Z,16.21
2022-09-12T13:00:40.472Z,16.19
2022-09-12T13:03:07.548Z,16.23
2022-09-12T13:05:48.646Z,16.02
2022-09-12T13:08:18.885Z,16.07
2022-09-12T13:10:57.029Z,15.95
2022-09-12T13:13:32.184Z,15.95
2022-09-12T13:15:59.828Z,15.83
2022-09-12T13:18:32.845Z,15.77
2022-09-12T13:21:11.904Z,15.89
2022-09-12T13:23:39.526Z,15.92
2022-09-12T13:26:25.695Z,15.84
2022-09-12T13:29:19.589Z,15.79
2022-09-12T13:31:52.875Z,15.84
2022-09-12T13:34:27.067Z,15.78
2022-09-12T13:37:07.606Z,15.93
2022-09-12T13:40:08.780Z,15.96
2022-09-12T13:42:45.190Z,16.04
2022-09-12T13:45:22.800Z,16.07
2022-09-12T13:48:25.341Z,16.03
2022-09-12T13:50:59.975Z,16.13
2022-09-12T13:53:31.993Z,16.16
2022-09-12T13:56:00.158Z,16.07
2022-09-12T13:58:30.486Z,16.08
2022-09-12T14:01:04.691Z,16.01
2022-09-12T14:03:58.979Z,15.79
2022-09-12T14:06:27.826Z,15.97
2022-09-12T14:09:01.593Z,15.91
2022-09-12T14:11:33.899Z,15.93
2022-09-12T14:14:06.612Z,15.94
2022-09-12T14:16:40.097Z,15.90
2022-09-12T14:19:10.352Z,15.88
2022-09-12T14:21:38.564Z,15.73
2022-09-12T14:24:08.660Z,15.76
2022-09-12T14:26:38.626Z,15.72
2022-09-12T14:29:07.715Z,15.71
2022-09-12T14:31:38.139Z,15.73
2022-09-12T14:34:09.757Z,15.66
2022-09-12T14:36:41.951Z,15.64
2022-09-12T14:39:38.028Z,15.70
2022-09-12T14:42:18.469Z,15.55
2022-09-12T14:45:14.242Z,15.44
2022-09-12T14:47:44.506Z,15.46
2022-09-12T14:50:17.857Z,15.40
2022-09-12T14:52:45.413Z,15.52
2022-09-12T14:55:16.228Z,15.53
2022-09-12T14:57:44.636Z,15.53
2022-09-12T15:00:12.039Z,15.56
2022-09-12T15:02:44.528Z,15.52
2022-09-12T15:05:11.684Z,15.54
2022-09-12T15:07:54.480Z,15.49
2022-09-12T15:10:48.367Z,15.52
2022-09-12T15:13:19.707Z,15.50
2022-09-12T15:15:49.336Z,15.61
2022-09-12T15:18:18.808Z,15.66
2022-09-12T15:20:50.288Z,15.54
2022-09-12T15:23:17.502Z,15.52
2022-09-12T15:25:44.648Z,15.37
2022-09-12T15:28:20.817Z,15.38
2022-09-12T15:30:50.612Z,15.27
2022-09-12T15:33:19.632Z,15.47
2022-09-12T15:35:47.171Z,15.31
2022-09-12T15:38:14.696Z,15.41
2022-09-12T15:40:42.402Z,15.43
2022-09-12T15:43:13.380Z,15.40
2022-09-12T15:45:43.672Z,15.35
2022-09-12T15:48:10.910Z,15.23
2022-09-12T15:50:38.021Z,15.24
2022-09-12T15:53:05.371Z,15.30
2022-09-12T15:55:33.033Z,15.22
2022-09-12T15:58:04.872Z,15.21
2022-09-12T16:00:35.660Z,15.11
2022-09-12T16:03:02.921Z,15.11
2022-09-12T16:05:30.160Z,15.21
2022-09-12T16:07:57.801Z,15.13
2022-09-12T16:10:29.007Z,15.11
2022-09-12T16:12:56.484Z,15.04
2022-09-12T16:15:25.230Z,15.11
2022-09-12T16:17:53.080Z,15.03
2022-09-12T16:20:22.270Z,14.98
2022-09-12T16:22:49.749Z,14.84
2022-09-12T16:25:17.500Z,14.64
2022-09-12T16:27:44.892Z,14.55
2022-09-12T16:30:13.228Z,14.55
2022-09-12T16:32:40.607Z,14.47
2022-09-12T16:35:08.927Z,14.28
2022-09-12T16:37:36.589Z,14.02
2022-09-12T16:40:05.320Z,13.79
2022-09-12T16:42:32.967Z,13.54
2022-09-12T16:45:00.331Z,13.43
2022-09-12T16:47:27.512Z,13.43
2022-09-12T16:49:54.829Z,13.39
2022-09-12T16:52:22.333Z,13.22
2022-09-12T16:54:49.474Z,13.24
2022-09-12T16:57:16.709Z,13.13
2022-09-12T16:59:44.630Z,13.06
2022-09-12T17:02:13.994Z,12.94
2022-09-12T17:04:41.579Z,12.77
2022-09-12T17:07:09.556Z,12.66
2022-09-12T17:09:36.856Z,12.53
2022-09-12T17:12:04.507Z,12.39
2022-09-12T17:14:31.975Z,12.31
2022-09-12T17:16:59.148Z,12.17
2022-09-12T17:19:29.744Z,12.13
2022-09-12T17:21:57.891Z,12.07
2022-09-12T17:24:25.923Z,11.99
2022-09-12T17:26:53.937Z,11.98
2022-09-12T17:29:21.378Z,11.92
2022-09-12T17:31:49.460Z,11.81
2022-09-12T17:34:17.811Z,11.86
2022-09-12T17:36:46.777Z,11.77
2022-09-12T17:39:15.468Z,11.76
2022-09-12T17:41:43.470Z,11.73
2022-09-12T17:44:15.525Z,11.74
2022-09-12T17:46:44.407Z,11.75
2022-09-12T17:49:15.144Z,11.64
2022-09-12T17:51:44.278Z,11.55
2022-09-12T17:54:16.392Z,11.52
2022-09-12T17:56:46.026Z,11.57
2022-09-12T17:59:19.281Z,11.62
2022-09-12T18:02:22.336Z,11.60
2022-09-12T18:04:50.780Z,11.66
2022-09-12T18:07:19.995Z,11.72
2022-09-12T18:09:48.129Z,11.71
2022-09-12T18:12:16.260Z,11.72
2022-09-12T18:14:44.159Z,11.62
2022-09-12T18:17:11.633Z,11.63
2022-09-12T18:19:38.836Z,11.58
2022-09-12T18:22:06.979Z,11.56
2022-09-12T18:24:34.266Z,11.59
2022-09-12T18:27:03.923Z,11.58
2022-09-12T18:29:31.518Z,11.53
2022-09-12T18:31:59.685Z,11.45
2022-09-12T18:34:27.297Z,11.48
2022-09-12T18:36:55.252Z,11.41
2022-09-12T18:39:27.429Z,11.38
2022-09-12T18:41:55.376Z,11.29
2022-09-12T18:44:22.965Z,11.24
2022-09-12T18:46:50.640Z,11.20
2022-09-12T18:49:18.544Z,11.23
2022-09-12T18:51:46.074Z,11.20
2022-09-12T18:54:15.680Z,11.26
2022-09-12T18:56:44.097Z,11.24
2022-09-12T18:59:14.199Z,11.16
2022-09-12T19:01:43.035Z,11.09
2022-09-12T19:04:11.977Z,11.07
2022-09-12T19:06:42.145Z,11.07
2022-09-12T19:09:11.622Z,11.01
2022-09-12T19:11:42.462Z,11.07
2022-09-12T19:14:09.877Z,11.19
2022-09-12T19:16:37.401Z,11.20
2022-09-12T19:19:04.909Z,11.33
2022-09-12T19:21:33.604Z,11.29
2022-09-12T19:24:03.980Z,11.23
2022-09-12T19:26:32.116Z,11.19
2022-09-12T19:29:01.054Z,11.18
2022-09-12T19:31:28.830Z,11.21
2022-09-12T19:34:04.724Z,11.05
2022-09-12T19:36:47.765Z,11.02
2022-09-12T19:39:17.102Z,11.12
2022-09-12T19:41:45.134Z,11.10
2022-09-12T19:44:12.555Z,11.07
2022-09-12T19:46:40.573Z,10.99
2022-09-12T19:49:07.930Z,11.00
2022-09-12T19:51:35.218Z,10.95
2022-09-12T19:54:03.099Z,10.93
2022-09-12T19:56:30.386Z,11.02
2022-09-12T19:58:57.693Z,10.93
2022-09-12T20:01:30.180Z,11.03
2022-09-12T20:03:58.282Z,11.12
2022-09-12T20:06:26.319Z,11.30
2022-09-12T20:08:54.259Z,11.14
2022-09-12T20:11:23.740Z,10.98
2022-09-12T20:13:51.541Z,10.90
2022-09-12T20:16:25.530Z,10.81
2022-09-12T20:18:55.305Z,10.87
2022-09-12T20:21:31.418Z,10.83
2022-09-12T20:24:05.359Z,10.76
2022-09-12T20:26:33.463Z,10.81
2022-09-12T20:29:00.856Z,10.66
2022-09-12T20:31:28.840Z,10.58
2022-09-12T20:33:56.306Z,10.56
2022-09-12T20:36:23.900Z,10.57
2022-09-12T20:38:53.294Z,10.73
2022-09-12T20:41:21.494Z,10.73
2022-09-12T20:43:53.158Z,10.80
2022-09-12T20:46:24.710Z,10.87
2022-09-12T20:48:52.650Z,10.92
2022-09-12T20:51:21.690Z,10.91
2022-09-12T20:53:53.392Z,11.01
2022-09-12T20:56:21.461Z,10.98
2022-09-12T20:58:48.795Z,10.84
2022-09-12T21:01:16.856Z,10.97
2022-09-12T21:03:44.849Z,11.20
2022-09-12T21:06:13.808Z,11.16
2022-09-12T21:08:41.074Z,11.09
2022-09-12T21:11:08.911Z,11.07
2022-09-12T21:13:37.362Z,10.80
2022-09-12T21:16:07.261Z,10.62
2022-09-12T21:18:35.546Z,10.48
2022-09-12T21:21:03.900Z,10.38
2022-09-12T21:23:32.274Z,10.33
2022-09-12T21:26:01.448Z,10.28
2022-09-12T21:28:28.904Z,10.33
2022-09-12T21:30:56.251Z,10.34
2022-09-12T21:33:23.967Z,10.39
2022-09-12T21:35:51.313Z,10.31
2022-09-12T21:38:19.969Z,10.28
2022-09-12T21:40:47.768Z,10.15
2022-09-12T21:43:15.526Z,10.03
2022-09-12T21:45:42.679Z,9.96
2022-09-12T21:48:10.026Z,9.86
2022-09-12T21:50:37.183Z,9.88
2022-09-12T21:53:04.346Z,10.02
2022-09-12T21:55:31.840Z,9.96
2022-09-12T21:57:59.188Z,9.91
2022-09-12T22:00:26.500Z,9.87
2022-09-12T22:02:53.886Z,9.86
2022-09-12T22:05:22.358Z,9.83
2022-09-12T22:07:49.564Z,9.87
2022-09-12T22:10:17.066Z,9.95
2022-09-12T22:12:46.457Z,10.09
2022-09-12T22:18:02.017Z,10.17
2022-09-12T22:20:29.178Z,10.29
2022-09-12T22:23:14.964Z,10.31
2022-09-12T22:25:42.436Z,10.10
2022-09-12T22:28:09.870Z,9.95
2022-09-12T22:30:37.613Z,9.89
2022-09-12T22:33:04.958Z,9.88
2022-09-12T22:35:32.122Z,9.79
2022-09-12T22:37:59.484Z,9.70
2022-09-12T22:40:26.702Z,9.66
2022-09-12T22:42:55.133Z,9.62
2022-09-12T22:45:22.275Z,9.61
2022-09-12T22:47:49.602Z,9.56
2022-09-12T22:50:16.834Z,9.57
2022-09-12T22:52:44.494Z,9.54
2022-09-12T22:55:11.735Z,9.54
2022-09-12T22:57:39.914Z,9.55
2022-09-12T23:00:10.757Z,9.53
2022-09-12T23:02:38.238Z,9.53
2022-09-12T23:05:06.206Z,9.54
2022-09-12T23:07:33.737Z,9.54
2022-09-12T23:10:01.128Z,9.48
2022-09-12T23:12:28.568Z,9.46
2022-09-12T23:14:55.703Z,9.46
2022-09-12T23:17:23.082Z,9.40
2022-09-12T23:19:50.216Z,9.39
2022-09-12T23:22:17.506Z,9.34
2022-09-12T23:24:44.935Z,9.38
2022-09-12T23:27:12.092Z,9.38
2022-09-12T23:29:39.270Z,9.27
2022-09-12T23:32:06.863Z,9.28
2022-09-12T23:34:34.272Z,9.19
2022-09-12T23:37:01.505Z,9.13
2022-09-12T23:39:28.989Z,9.12
2022-09-12T23:41:56.129Z,9.16
2022-09-12T23:44:23.279Z,9.16
2022-09-12T23:46:50.715Z,9.15
2022-09-12T23:49:17.919Z,9.11
2022-09-12T23:51:45.069Z,9.13
2022-09-12T23:54:12.408Z,9.13
2022-09-12T23:56:39.699Z,9.00
2022-09-12T23:59:06.819Z,9.13
